Time;durP1;ratioP1;P1;durP2;ratioP2;P2;SDS_P1;SDS_P2;PMS_P1;PMS_P2;Temp;Humidity;BMP_temperature;BMP_pressure;BME280_temperature;BME280_humidity;BME280_pressure;Samples;Min_cycle;Max_cycle;Signal;HPM_P1;HPM_P2
2022/08/21 00:01:39;;;;;;;7.13;3.57;;;;;;;13.86;100.00;101098.75;4988717;28;20045;-76
2022/08/21 00:04:09;;;;;;;9.70;3.87;;;;;;;13.85;100.00;101097.09;5003180;28;20034;-76
2022/08/21 00:06:36;;;;;;;11.75;3.92;;;;;;;13.85;100.00;101099.78;5007468;28;20033;-76
2022/08/21 00:09:05;;;;;;;14.23;4.28;;;;;;;13.83;100.00;101099.94;4994352;28;20083;-76
2022/08/21 00:11:30;;;;;;;11.52;4.80;;;;;;;13.79;100.00;101097.78;4974476;28;20029;-76
2022/08/21 00:13:56;;;;;;;8.73;3.87;;;;;;;13.81;100.00;101107.31;4998023;28;20475;-76
2022/08/21 00:16:22;;;;;;;10.30;3.43;;;;;;;13.82;100.00;101108.19;5005808;28;20037;-76
2022/08/21 00:18:48;;;;;;;5.43;3.80;;;;;;;13.84;100.00;101107.00;5002935;28;20019;-76
2022/08/21 00:21:14;;;;;;;9.10;4.45;;;;;;;13.82;100.00;101108.19;4995311;28;20037;-77
2022/08/21 00:23:39;;;;;;;10.77;4.10;;;;;;;13.78;100.00;101102.31;4983105;28;20018;-76
2022/08/21 00:26:05;;;;;;;9.37;3.37;;;;;;;13.72;100.00;101103.03;5007071;28;20423;-76
2022/08/21 00:28:31;;;;;;;9.55;4.28;;;;;;;13.73;100.00;101097.47;5005841;28;20338;-76
2022/08/21 00:30:57;;;;;;;7.03;3.40;;;;;;;13.69;100.00;101098.00;4995487;28;20455;-75
2022/08/21 00:33:23;;;;;;;7.13;4.05;;;;;;;13.67;100.00;101094.66;4989551;28;20020;-76
2022/08/21 00:35:49;;;;;;;10.63;4.55;;;;;;;13.67;100.00;101097.34;5006983;28;20076;-76
2022/08/21 00:38:14;;;;;;;9.33;3.50;;;;;;;13.68;100.00;101101.72;5005655;28;20053;-76
2022/08/21 00:41:00;;;;;;;8.23;4.00;;;;;;;13.60;100.00;101097.22;5005173;28;20041;-74
2022/08/21 00:43:31;;;;;;;9.23;4.03;;;;;;;13.57;100.00;101100.22;5005081;28;20083;-75
2022/08/21 00:45:57;;;;;;;10.68;3.60;;;;;;;13.54;100.00;101099.75;4997084;28;20091;-74
2022/08/21 00:48:23;;;;;;;7.05;4.13;;;;;;;13.59;100.00;101108.94;5005504;28;20033;-74
2022/08/21 00:50:55;;;;;;;7.00;3.75;;;;;;;13.59;100.00;101111.63;5006046;28;20046;-74
2022/08/21 00:53:22;;;;;;;6.63;2.95;;;;;;;13.58;100.00;101106.41;5006467;28;20034;-74
2022/08/21 00:55:49;;;;;;;7.55;4.13;;;;;;;13.54;100.00;101110.47;5005235;28;20101;-74
2022/08/21 00:58:15;;;;;;;;;;;;;;;13.52;100.00;101116.00;5005487;28;20034;-74
2022/08/21 01:00:45;;;;;;;8.45;3.85;;;;;;;13.46;100.00;101108.63;5006002;28;19917;-74
2022/08/21 01:03:14;;;;;;;9.70;3.72;;;;;;;13.43;100.00;101109.00;5006527;28;20053;-74
2022/08/21 01:05:40;;;;;;;11.82;3.65;;;;;;;13.44;100.00;101113.38;4996836;28;20087;-74
2022/08/21 01:08:07;;;;;;;6.88;3.30;;;;;;;13.44;100.00;101116.88;5005092;28;20372;-74
2022/08/21 01:10:34;;;;;;;8.30;3.33;;;;;;;13.41;100.00;101121.72;5005734;28;20033;-74
2022/08/21 01:13:01;;;;;;;14.60;4.43;;;;;;;13.41;100.00;101121.72;5006249;28;20442;-76
2022/08/21 01:15:31;;;;;;;10.50;3.88;;;;;;;13.38;100.00;101119.41;5005298;28;20112;-76
2022/08/21 01:17:56;;;;;;;7.68;4.07;;;;;;;13.35;100.00;101107.19;5004921;28;20096;-76
2022/08/21 01:20:22;;;;;;;8.80;3.60;;;;;;;13.28;100.00;101108.88;4987332;28;20026;-74
2022/08/21 01:22:47;;;;;;;8.23;3.72;;;;;;;13.28;100.00;101108.88;5004710;28;20105;-74
2022/08/21 01:25:19;;;;;;;11.97;4.27;;;;;;;13.28;100.00;101119.59;5004786;28;20937;-74
2022/08/21 01:27:45;;;;;;;8.82;4.07;;;;;;;13.22;100.00;101122.91;4999397;28;20400;-74
2022/08/21 01:30:19;;;;;;;6.68;3.75;;;;;;;13.18;100.00;101122.44;5003006;28;20033;-74
2022/08/21 01:32:46;;;;;;;7.65;4.07;;;;;;;13.18;100.00;101132.31;5004764;28;20034;-74
2022/08/21 01:35:13;;;;;;;8.20;3.88;;;;;;;13.22;100.00;101129.13;5004621;28;20026;-74
2022/08/21 01:37:39;;;;;;;11.82;4.55;;;;;;;13.16;100.00;101128.94;5005700;28;20083;-74
2022/08/21 01:40:06;;;;;;;10.88;3.55;;;;;;;13.14;100.00;101128.31;5004375;28;20429;-74
2022/08/21 01:42:31;;;;;;;8.20;3.25;;;;;;;13.08;100.00;101122.59;5005669;28;20064;-74
2022/08/21 01:44:57;;;;;;;8.50;3.95;;;;;;;13.08;100.00;101116.41;5005785;28;20033;-74
2022/08/21 01:47:23;;;;;;;7.30;4.60;;;;;;;13.02;100.00;101117.94;4988055;28;20038;-74
2022/08/21 01:49:49;;;;;;;8.98;3.70;;;;;;;12.99;100.00;101112.91;5005364;28;20117;-74
2022/08/21 01:52:14;;;;;;;9.23;3.33;;;;;;;12.94;100.00;101104.53;4988153;28;20041;-76
2022/08/21 01:54:41;;;;;;;7.67;4.23;;;;;;;12.95;100.00;101106.22;5004697;28;20033;-76
2022/08/21 01:57:07;;;;;;;9.75;4.18;;;;;;;12.96;100.00;101107.06;5004250;28;20383;-76
2022/08/21 01:59:34;;;;;;;11.95;3.67;;;;;;;12.93;100.00;101115.44;4990932;28;20030;-75
2022/08/21 02:02:00;;;;;;;12.73;4.20;;;;;;;12.92;100.00;101119.94;4996594;28;20096;-75
2022/08/21 02:04:26;;;;;;;9.43;5.07;;;;;;;12.87;100.00;101111.56;5005969;28;20014;-75
2022/08/21 02:06:51;;;;;;;10.87;4.70;;;;;;;12.82;100.00;101104.03;5005829;28;20033;-75
2022/08/21 02:09:17;;;;;;;6.67;4.00;;;;;;;12.77;100.00;101109.06;4988033;28;20301;-75
2022/08/21 02:11:43;;;;;;;7.03;4.55;;;;;;;12.67;100.00;101114.59;4996028;28;20030;-75
2022/08/21 02:14:11;;;;;;;6.45;3.92;;;;;;;12.68;100.00;101121.63;4987792;28;20038;-75
2022/08/21 02:16:38;;;;;;;11.20;5.03;;;;;;;12.77;100.00;101124.31;5005483;28;20072;-74
2022/08/21 02:19:04;;;;;;;9.60;5.20;;;;;;;12.82;100.00;101127.31;5004050;28;20037;-74
2022/08/21 02:21:30;;;;;;;;;;;;;;;12.86;100.00;101134.84;4977214;28;20026;-75
2022/08/21 02:23:56;;;;;;;;;;;;;;;12.82;100.00;101132.69;4992194;28;20279;-75
2022/08/21 02:26:21;;;;;;;;;;;;;;;12.77;100.00;101133.19;5008579;28;20008;-76
2022/08/21 02:28:46;;;;;;;7.73;4.33;;;;;;;12.72;100.00;101132.03;5000049;28;20000;-76
2022/08/21 02:31:12;;;;;;;11.90;4.80;;;;;;;12.70;100.00;101131.34;5008922;28;20026;-76
2022/08/21 02:33:38;;;;;;;10.13;4.97;;;;;;;12.74;100.00;101140.72;4991680;28;20022;-76
2022/08/21 02:36:05;;;;;;;12.73;4.75;;;;;;;12.81;100.00;101141.75;5009039;28;20038;-76
2022/08/21 02:38:33;;;;;;;15.73;5.68;;;;;;;12.84;100.00;101142.22;5008980;28;20074;-75
2022/08/21 02:40:59;;;;;;;12.40;4.80;;;;;;;12.92;100.00;101144.06;5007526;28;20034;-76
2022/08/21 02:43:26;;;;;;;10.38;5.55;;;;;;;12.91;100.00;101142.41;5007863;28;20026;-76
2022/08/21 02:45:53;;;;;;;8.65;5.70;;;;;;;12.92;100.00;101136.00;5007652;28;20400;-76
2022/08/21 02:48:22;;;;;;;7.65;4.68;;;;;;;12.87;100.00;101141.06;5009100;28;20084;-75
2022/08/21 02:50:53;;;;;;;10.65;4.90;;;;;;;12.83;100.00;101139.69;5008387;28;20030;-76
2022/08/21 02:53:19;;;;;;;11.07;4.70;;;;;;;12.90;100.00;101135.38;5009015;28;20063;-76
2022/08/21 02:55:47;;;;;;;16.23;6.75;;;;;;;12.95;100.00;101135.69;4975013;28;20025;-76
2022/08/21 02:58:15;;;;;;;12.45;4.78;;;;;;;12.97;100.00;101127.47;5007468;28;20125;-76
2022/08/21 03:00:41;;;;;;;14.85;5.13;;;;;;;13.03;100.00;101133.00;5007238;28;20026;-76
2022/08/21 03:03:06;;;;;;;10.15;5.53;;;;;;;13.01;100.00;101121.59;5007478;28;20044;-76
2022/08/21 03:05:33;;;;;;;10.83;4.33;;;;;;;13.05;100.00;101122.13;5008601;28;20021;-76
2022/08/21 03:08:01;;;;;;;8.60;4.80;;;;;;;13.01;100.00;101115.41;5007086;28;20057;-75
2022/08/21 03:10:27;;;;;;;7.18;4.47;;;;;;;12.93;100.00;101104.72;5006780;28;20510;-75
2022/08/21 03:12:54;;;;;;;;;;;;;;;12.85;100.00;101110.91;5007796;28;20034;-76
2022/08/21 03:15:21;;;;;;;8.65;4.22;;;;;;;12.79;100.00;101100.88;5006096;28;19967;-76
2022/08/21 03:17:47;;;;;;;7.55;3.83;;;;;;;12.76;100.00;101109.22;5007338;28;20030;-76
2022/08/21 03:20:15;;;;;;;11.85;4.20;;;;;;;12.68;100.00;101102.88;5007958;28;20030;-74
2022/08/21 03:22:41;;;;;;;5.53;3.95;;;;;;;12.65;100.00;101097.84;5008215;28;20049;-74
2022/08/21 03:25:08;;;;;;;5.75;3.95;;;;;;;12.59;100.00;101093.16;4990573;28;20018;-74
2022/08/21 03:27:34;;;;;;;6.55;3.47;;;;;;;12.55;100.00;101093.66;5008138;28;20387;-74
2022/08/21 03:29:59;;;;;;;;;;;;;;;12.53;100.00;101093.00;4990834;28;20026;-74
2022/08/21 03:32:25;;;;;;;;;;;;;;;12.49;100.00;101095.19;5008489;28;19924;-74
2022/08/21 03:34:50;;;;;;;5.23;3.80;;;;;;;12.40;100.00;101090.81;4998600;28;19917;-74
2022/08/21 03:37:17;;;;;;;6.00;3.77;;;;;;;12.35;100.00;101083.28;4973812;28;20037;-75
2022/08/21 03:39:43;;;;;;;11.35;4.30;;;;;;;12.38;100.00;101090.97;5006639;28;20034;-75
2022/08/21 03:42:09;;;;;;;7.32;4.40;;;;;;;12.36;100.00;101089.47;4998429;28;20037;-75
2022/08/21 03:44:35;;;;;;;5.70;4.15;;;;;;;12.32;100.00;101085.47;5006792;28;20025;-75
2022/08/21 03:47:01;;;;;;;7.32;4.45;;;;;;;12.33;100.00;101095.16;5006518;28;20168;-75
2022/08/21 03:49:26;;;;;;;;;;;;;;;12.31;100.00;101094.47;5006708;28;20029;-75
2022/08/21 03:51:52;;;;;;;;;;;;;;;12.29;100.00;101091.13;4998707;28;20302;-75
2022/08/21 03:54:18;;;;;;;6.20;3.83;;;;;;;12.27;100.00;101103.84;5006565;28;20000;-74
2022/08/21 03:56:43;;;;;;;5.55;4.00;;;;;;;12.22;100.00;101102.50;5006176;28;20030;-74
2022/08/21 03:59:08;;;;;;;9.80;5.53;;;;;;;12.23;100.00;101103.34;5006115;28;20044;-74
2022/08/21 04:01:34;;;;;;;8.23;4.10;;;;;;;12.21;100.00;101098.16;4990067;28;20036;-74
2022/08/21 04:03:59;;;;;;;6.03;4.03;;;;;;;12.20;100.00;101104.50;5006163;28;20030;-74
2022/08/21 04:06:26;;;;;;;7.03;3.90;;;;;;;12.18;100.00;101093.13;4997527;28;20034;-75
2022/08/21 04:08:52;;;;;;;;;;;;;;;12.20;100.00;101101.00;4990263;28;20034;-74
2022/08/21 04:11:17;;;;;;;;;;;;;;;12.17;100.00;101107.50;5007960;28;19978;-74
2022/08/21 04:13:42;;;;;;;12.27;4.57;;;;;;;12.16;100.00;101100.47;5003928;28;20011;-75
2022/08/21 04:16:08;;;;;;;8.87;5.43;;;;;;;12.17;100.00;101101.31;5002885;28;20041;-74
2022/08/21 04:18:34;;;;;;;9.52;3.92;;;;;;;12.16;100.00;101105.84;5005720;28;20114;-74
2022/08/21 04:21:01;;;;;;;9.15;3.75;;;;;;;12.16;100.00;101113.88;5006508;28;20080;-74
2022/08/21 04:23:27;;;;;;;8.25;3.95;;;;;;;12.15;100.00;101108.66;5005700;28;20022;-74
2022/08/21 04:25:55;;;;;;;8.43;4.00;;;;;;;12.15;100.00;101103.31;4989448;28;20147;-74
2022/08/21 04:28:23;;;;;;;5.07;3.67;;;;;;;12.15;100.00;101101.50;5006812;28;20299;-75
2022/08/21 04:30:51;;;;;;;6.85;4.13;;;;;;;12.16;100.00;101113.88;5006519;28;20049;-74
2022/08/21 04:33:17;;;;;;;6.57;4.25;;;;;;;12.18;100.00;101103.84;5005571;28;20475;-74
2022/08/21 04:35:43;;;;;;;8.07;3.75;;;;;;;12.20;100.00;101114.38;5006777;28;20034;-74
2022/08/21 04:38:08;;;;;;;8.68;3.92;;;;;;;12.22;100.00;101115.91;5002926;28;20058;-74
2022/08/21 04:40:34;;;;;;;5.80;3.70;;;;;;;12.24;100.00;101119.25;5005101;28;20045;-74
2022/08/21 04:43:06;;;;;;;8.77;4.90;;;;;;;12.27;100.00;101118.09;5006707;28;20029;-75
2022/08/21 04:45:40;;;;;;;11.02;4.32;;;;;;;12.27;100.00;101112.72;4994478;28;20430;-74
2022/08/21 04:48:09;;;;;;;6.88;4.50;;;;;;;12.29;100.00;101104.50;5002810;28;20033;-75
2022/08/21 04:50:40;;;;;;;6.28;4.10;;;;;;;12.32;100.00;101114.91;5006087;28;20049;-74
2022/08/21 04:53:10;;;;;;;8.95;4.32;;;;;;;12.39;100.00;101121.28;4988723;28;20487;-75
2022/08/21 04:55:37;;;;;;;6.20;4.43;;;;;;;12.44;100.00;101113.59;4991897;28;20030;-75
2022/08/21 04:58:05;;;;;;;6.72;3.80;;;;;;;12.50;100.00;101115.59;5006223;28;20028;-75
2022/08/21 05:00:30;;;;;;;6.25;3.78;;;;;;;12.63;100.00;101123.13;5001541;28;20510;-74
2022/08/21 05:02:58;;;;;;;13.00;6.63;;;;;;;12.73;100.00;101125.66;5004595;28;20057;-75
2022/08/21 05:05:25;;;;;;;9.82;4.60;;;;;;;12.84;100.00;101126.16;4988108;28;20068;-74
2022/08/21 05:07:51;;;;;;;13.13;5.47;;;;;;;12.96;100.00;101134.69;5005883;28;20026;-75
2022/08/21 05:10:17;;;;;;;12.75;4.97;;;;;;;13.05;100.00;101122.13;4992278;28;20030;-75
2022/08/21 05:12:44;;;;;;;8.32;4.50;;;;;;;13.10;100.00;101125.94;5004510;28;20910;-75
2022/08/21 05:15:14;;;;;;;10.85;4.78;;;;;;;13.19;100.00;101126.78;5005867;28;20092;-75
2022/08/21 05:17:41;;;;;;;6.95;4.75;;;;;;;13.30;100.00;101120.28;5003536;28;20495;-76
2022/08/21 05:20:07;;;;;;;10.48;4.47;;;;;;;13.34;100.00;101105.50;5005314;28;20124;-76
2022/08/21 05:22:33;;;;;;;8.25;4.32;;;;;;;13.49;100.00;101109.16;4990876;28;20010;-76
2022/08/21 05:24:58;;;;;;;7.63;4.60;;;;;;;13.79;100.00;101103.16;4988078;28;20441;-76
2022/08/21 05:27:23;;;;;;;11.10;4.00;;;;;;;14.80;100.00;101122.84;4992522;28;20026;-75
2022/08/21 05:29:49;;;;;;;10.60;3.03;;;;;;;15.88;100.00;101117.00;5005352;28;20050;-76
2022/08/21 05:32:14;;;;;;;5.07;3.33;;;;;;;16.76;100.00;101098.84;5004931;28;20034;-76
2022/08/21 05:34:40;;;;;;;8.80;3.63;;;;;;;17.42;100.00;101063.44;5004274;28;20487;-76
2022/08/21 05:37:05;;;;;;;6.23;4.13;;;;;;;18.17;100.00;101027.53;4987957;28;20030;-76
2022/08/21 05:39:31;;;;;;;6.00;2.70;;;;;;;18.43;100.00;100924.84;4990585;28;20099;-75
2022/08/21 05:41:57;;;;;;;8.23;2.33;;;;;;;18.53;100.00;100803.59;4985964;28;20030;-75
2022/08/21 05:44:22;;;;;;;4.93;2.60;;;;;;;18.78;100.00;100743.41;4998043;28;20432;-75
2022/08/21 05:46:48;;;;;;;4.80;2.83;;;;;;;18.65;100.00;100689.34;5039595;23;20045;-74
2022/08/21 05:49:13;;;;;;;10.73;2.97;;;;;;;18.83;100.00;100681.38;5019843;28;20284;-74
2022/08/21 05:51:42;;;;;;;6.60;2.30;;;;;;;19.49;100.00;100754.97;5021416;28;20028;-73
2022/08/21 05:54:07;;;;;;;5.55;2.08;;;;;;;20.63;100.00;100683.09;5036948;28;20033;-74
2022/08/21 05:56:33;;;;;;;7.37;2.33;;;;;;;21.06;100.00;100481.16;5028204;28;20048;-74
2022/08/21 05:58:58;;;;;;;7.78;3.10;;;;;;;20.70;100.00;100465.16;5059042;28;20041;-73
2022/08/21 06:01:24;;;;;;;6.30;2.13;;;;;;;21.13;100.00;100415.91;5061409;28;20034;-77
2022/08/21 06:03:50;;;;;;;4.25;1.77;;;;;;;19.57;100.00;100456.84;5063938;28;20048;-77
2022/08/21 06:06:15;;;;;;;6.47;2.47;;;;;;;19.23;100.00;100567.41;5061917;28;20070;-77
2022/08/21 06:08:41;;;;;;;7.50;2.22;;;;;;;20.26;100.00;100633.50;5049096;28;20156;-77
2022/08/21 06:11:08;;;;;;;7.93;2.15;;;;;;;20.11;100.00;100511.97;5068695;28;20149;-77
2022/08/21 06:13:34;;;;;;;9.50;2.22;;;;;;;19.36;100.00;100521.25;5063075;28;20036;-76
2022/08/21 06:16:11;;;;;;;;;;;;;;;20.40;100.00;100672.94;5066264;28;20485;-77
2022/08/21 06:18:37;;;;;;;8.80;2.63;;;;;;;19.90;100.00;100450.16;5077783;28;19971;-77
2022/08/21 06:21:03;;;;;;;5.97;1.98;;;;;;;20.09;100.00;100440.91;5072231;28;20073;-77
2022/08/21 06:23:28;;;;;;;5.50;1.83;;;;;;;20.32;100.00;100448.25;5083840;28;20029;-76
2022/08/21 06:25:53;;;;;;;4.03;1.67;;;;;;;20.93;100.00;100556.56;5086901;28;20035;-76
2022/08/21 06:28:19;;;;;;;8.23;2.30;;;;;;;21.55;100.00;100520.78;5073174;28;20041;-77
2022/08/21 06:30:44;;;;;;;6.67;1.60;;;;;;;21.82;93.76;100412.31;5067338;28;20081;-77
2022/08/21 06:33:10;;;;;;;8.77;2.23;;;;;;;21.69;89.73;100293.94;5047126;28;20123;-77
2022/08/21 06:35:36;;;;;;;4.13;1.75;;;;;;;21.34;92.58;100387.25;5068110;28;20039;-77
2022/08/21 06:38:01;;;;;;;5.53;1.50;;;;;;;21.53;95.52;100498.44;5065636;28;20034;-78
2022/08/21 06:40:28;;;;;;;4.82;1.00;;;;;;;22.30;90.67;100493.38;5048590;28;20028;-77
2022/08/21 06:42:54;;;;;;;5.68;2.20;;;;;;;22.87;88.27;100511.41;5062513;28;20105;-74
2022/08/21 06:45:20;;;;;;;7.35;2.47;;;;;;;22.44;81.82;100256.44;5061897;28;20287;-74
2022/08/21 06:47:45;;;;;;;;;;;;;;;22.80;82.56;100385.56;5058131;28;20466;-75
2022/08/21 06:50:11;;;;;;;7.30;1.48;;;;;;;22.49;83.47;100397.94;5048969;28;19923;-75
2022/08/21 06:52:37;;;;;;;6.13;2.05;;;;;;;22.85;79.62;100331.22;5068093;28;20056;-75
2022/08/21 06:55:09;;;;;;;4.68;1.20;;;;;;;22.11;81.81;100342.41;5083662;28;20688;-75
2022/08/21 06:57:35;;;;;;;5.40;1.35;;;;;;;22.68;77.63;100268.69;5066330;28;20028;-74
2022/08/21 07:00:02;;;;;;;5.05;1.52;;;;;;;21.83;79.54;100240.91;5061018;28;20050;-75
2022/08/21 07:02:28;;;;;;;5.70;2.13;;;;;;;20.80;84.39;100292.59;5081005;28;20082;-75
2022/08/21 07:04:53;;;;;;;3.00;1.63;;;;;;;21.64;83.48;100419.63;5053235;28;20396;-74
2022/08/21 07:07:18;;;;;;;6.03;1.77;;;;;;;21.57;81.59;100334.75;5080388;28;20028;-74
2022/08/21 07:09:44;;;;;;;4.97;1.53;;;;;;;21.21;82.21;100319.66;5079005;28;20024;-74
2022/08/21 07:12:09;;;;;;;8.10;1.80;;;;;;;21.02;83.79;100366.00;5078697;28;20688;-75
2022/08/21 07:14:36;;;;;;;7.30;2.25;;;;;;;21.39;82.36;100392.78;5063144;28;20024;-75
2022/08/21 07:17:01;;;;;;;;;;;;;;;21.66;81.54;100406.63;5061256;28;20036;-75
2022/08/21 07:19:27;;;;;;;3.55;1.80;;;;;;;21.93;80.02;100414.16;5060273;28;19936;-75
2022/08/21 07:21:58;;;;;;;4.63;1.30;;;;;;;22.68;77.32;100412.06;5061951;28;20444;-76
2022/08/21 07:24:24;;;;;;;6.82;2.13;;;;;;;22.91;75.13;100351.97;5066310;28;20374;-75
2022/08/21 07:26:49;;;;;;;9.07;2.03;;;;;;;22.63;71.37;100131.78;5063932;28;20111;-75
2022/08/21 07:29:15;;;;;;;14.30;2.97;;;;;;;21.97;73.03;100135.38;5069711;28;20329;-75
2022/08/21 07:31:40;;;;;;;5.78;2.00;;;;;;;22.22;73.10;100210.19;5063238;28;20047;-76
2022/08/21 07:34:06;;;;;;;6.80;2.20;;;;;;;22.29;69.58;100056.69;5060852;28;20032;-75
2022/08/21 07:36:31;;;;;;;14.17;2.93;;;;;;;21.20;74.43;100152.47;5050443;28;20287;-75
2022/08/21 07:38:57;;;;;;;5.82;1.95;;;;;;;21.03;74.28;100120.72;5082597;28;20040;-75
2022/08/21 07:41:25;;;;;;;6.97;2.00;;;;;;;22.05;77.11;100442.06;5061759;28;20035;-75
2022/08/21 07:43:50;;;;;;;6.60;2.10;;;;;;;22.54;71.81;100264.72;5064406;28;20403;-75
2022/08/21 07:46:16;;;;;;;3.30;1.40;;;;;;;22.84;71.39;100298.81;5062422;28;20024;-75
2022/08/21 07:48:42;;;;;;;6.85;1.80;;;;;;;22.41;73.61;100344.78;5080793;28;20032;-74
2022/08/21 07:51:12;;;;;;;5.90;2.13;;;;;;;22.41;72.09;100282.25;5081102;28;20024;-75
2022/08/21 07:53:38;;;;;;;5.93;1.70;;;;;;;22.75;73.32;100380.88;5052350;28;20043;-75
2022/08/21 07:56:07;;;;;;;5.57;1.80;;;;;;;22.48;70.90;100198.56;5078757;28;20472;-75
2022/08/21 07:58:33;;;;;;;7.38;2.28;;;;;;;22.47;71.57;100272.25;5060870;28;20413;-74
2022/08/21 08:00:58;;;;;;;4.03;2.20;;;;;;;21.79;69.07;100022.41;5081874;28;20081;-75
2022/08/21 08:03:24;;;;;;;9.53;2.40;;;;;;;22.12;69.06;100115.72;5073904;28;20416;-75
2022/08/21 08:05:49;;;;;;;7.10;1.53;;;;;;;22.28;66.88;100027.03;5068331;28;20046;-76
2022/08/21 08:08:15;;;;;;;3.87;1.77;;;;;;;22.53;67.05;100097.16;5062432;28;20089;-75
2022/08/21 08:10:41;;;;;;;9.15;1.60;;;;;;;22.51;66.40;100044.91;5067678;28;20107;-76
2022/08/21 08:13:06;;;;;;;;;;;;;;;22.41;68.75;100203.38;5081987;28;20035;-74
2022/08/21 08:15:32;;;;;;;6.32;2.45;;;;;;;22.88;66.32;100115.69;5050128;28;19908;-76
2022/08/21 08:17:57;;;;;;;6.50;1.70;;;;;;;22.44;64.65;99940.97;5063576;28;20036;-75
2022/08/21 08:20:26;;;;;;;5.13;1.88;;;;;;;23.14;64.62;100092.25;5077736;28;20411;-74
2022/08/21 08:22:52;;;;;;;7.90;2.17;;;;;;;23.46;64.75;100204.94;5079909;28;20502;-75
2022/08/21 08:25:19;;;;;;;11.77;2.22;;;;;;;23.49;64.21;100131.69;5078775;28;20020;-75
2022/08/21 08:27:44;;;;;;;9.77;1.88;;;;;;;21.78;61.13;99520.91;5052768;28;20032;-76
2022/08/21 08:30:13;;;;;;;5.43;2.30;;;;;;;21.78;63.25;99789.84;5059772;28;20541;-76
2022/08/21 08:32:39;;;;;;;4.68;2.03;;;;;;;22.45;64.57;100063.09;5051754;28;20024;-75
2022/08/21 08:35:06;;;;;;;5.25;1.50;;;;;;;22.74;67.63;100288.63;5031313;28;20117;-76
2022/08/21 08:37:33;;;;;;;8.85;2.22;;;;;;;-145.81;100.00;62408.38;5050775;28;20024;-79
2022/08/21 08:39:58;;;;;;;7.35;2.42;;;;;;;-145.81;100.00;62408.38;5070642;28;20028;-79
2022/08/21 08:42:32;;;;;;;10.00;2.63;;;;;;;-145.81;100.00;62408.38;5081144;28;20047;-80
2022/08/21 08:45:06;;;;;;;11.27;2.53;;;;;;;-145.81;100.00;62408.38;5067032;28;20377;-80
2022/08/21 08:47:36;;;;;;;6.78;2.60;;;;;;;-145.81;100.00;62408.38;5063878;28;20024;-79
2022/08/21 08:50:38;;;;;;;5.85;1.73;;;;;;;-145.81;100.00;62408.38;5054337;28;20028;-77
2022/08/21 08:53:14;;;;;;;10.52;2.05;;;;;;;-145.81;100.00;62408.38;5064217;28;20063;-77
2022/08/21 08:55:43;;;;;;;5.78;2.03;;;;;;;-145.81;100.00;62408.38;5056270;28;20047;-80
2022/08/21 08:58:22;;;;;;;6.65;2.90;;;;;;;-145.81;100.00;62408.38;5052104;28;20125;-77
2022/08/21 09:00:51;;;;;;;6.82;2.72;;;;;;;-145.81;100.00;62408.38;5069873;28;20028;-77
2022/08/21 09:03:18;;;;;;;9.02;2.42;;;;;;;-145.81;100.00;62408.38;5059915;28;20503;-77
2022/08/21 09:06:20;;;;;;;6.60;2.60;;;;;;;-145.81;100.00;62408.38;5050719;28;20043;-76
2022/08/21 09:09:25;;;;;;;8.35;2.88;;;;;;;-145.81;100.00;62408.38;5058240;28;20044;-76
2022/08/21 09:12:03;;;;;;;6.30;2.00;;;;;;;-145.81;100.00;62408.38;5069767;28;20048;-76
2022/08/21 09:14:46;;;;;;;7.22;2.53;;;;;;;-145.81;100.00;62408.38;5052388;28;20040;-76
2022/08/21 09:17:40;;;;;;;11.05;3.25;;;;;;;-145.81;100.00;62408.38;5063485;28;20067;-76
2022/08/21 09:20:17;;;;;;;9.65;2.05;;;;;;;-145.81;100.00;62408.38;5065666;28;20082;-79
2022/08/21 09:22:51;;;;;;;5.53;2.33;;;;;;;-145.81;100.00;62408.38;5065023;28;20625;-76
2022/08/21 09:25:25;;;;;;;7.93;2.35;;;;;;;-145.81;100.00;62408.38;5047793;28;20537;-75
2022/08/21 09:27:50;;;;;;;6.75;2.00;;;;;;;-145.81;100.00;62408.38;5065413;28;20056;-75
2022/08/21 09:30:17;;;;;;;6.53;2.20;;;;;;;-145.81;100.00;62408.38;5047253;28;20476;-75
2022/08/21 09:32:43;;;;;;;5.25;1.83;;;;;;;-145.81;100.00;62408.38;5052013;28;20032;-74
2022/08/21 09:35:13;;;;;;;7.37;2.57;;;;;;;-145.81;100.00;62408.38;5071197;28;20031;-75
2022/08/21 09:38:02;;;;;;;7.40;2.58;;;;;;;-145.81;100.00;62408.38;5065557;28;20318;-74
2022/08/21 09:40:36;;;;;;;7.00;1.67;;;;;;;-145.81;100.00;62408.38;5047057;28;20101;-76
2022/08/21 09:43:10;;;;;;;5.00;1.83;;;;;;;-145.81;100.00;62408.38;5047692;28;20032;-75
2022/08/21 09:45:36;;;;;;;28.17;9.68;;;;;;;-145.81;100.00;62408.38;5058224;28;20075;-76
2022/08/21 09:48:24;;;;;;;8.65;3.28;;;;;;;-145.81;100.00;62408.38;5047423;28;20044;-75
2022/08/21 09:50:50;;;;;;;5.75;1.90;;;;;;;-145.81;100.00;62408.38;5060765;28;20570;-77
2022/08/21 09:53:19;;;;;;;7.35;2.17;;;;;;;-145.81;100.00;62408.38;5067147;28;20020;-78
2022/08/21 09:58:45;;;;;;;6.93;2.50;;;;;;;-145.81;100.00;62408.38;5053175;28;20090;-76
2022/08/21 10:01:17;;;;;;;6.65;1.85;;;;;;;-145.81;100.00;62408.38;5047066;28;20028;-75
2022/08/21 10:03:44;;;;;;;8.88;2.17;;;;;;;-145.81;100.00;62408.38;5065587;28;20751;-75
2022/08/21 10:06:20;;;;;;;4.88;2.17;;;;;;;-145.81;100.00;62408.38;5071208;28;20458;-76
2022/08/21 10:08:45;;;;;;;4.32;2.08;;;;;;;-145.81;100.00;62408.38;5059246;28;20036;-76
2022/08/21 10:11:14;;;;;;;4.13;2.17;;;;;;;-145.81;100.00;62408.38;5070875;28;20047;-76
2022/08/21 10:13:51;;;;;;;13.95;3.35;;;;;;;-145.81;100.00;62408.38;5071364;28;20369;-76
2022/08/21 10:16:44;;;;;;;7.18;2.38;;;;;;;-145.81;100.00;62408.38;5077006;28;20128;-75
2022/08/21 10:19:24;;;;;;;8.13;2.15;;;;;;;-145.81;100.00;62408.38;5064645;28;20028;-77
2022/08/21 10:22:23;;;;;;;6.25;2.47;;;;;;;-145.81;100.00;62408.38;5063755;28;20040;-77
2022/08/21 10:25:23;;;;;;;5.03;2.08;;;;;;;-145.81;100.00;62408.38;5058971;28;20032;-76
2022/08/21 10:28:00;;;;;;;6.88;2.35;;;;;;;-145.81;100.00;62408.38;5026484;28;20035;-75
2022/08/21 10:30:41;;;;;;;3.97;1.67;;;;;;;-145.81;100.00;62408.38;5064511;28;20079;-77
2022/08/21 10:33:26;;;;;;;7.10;2.17;;;;;;;-145.81;100.00;62408.38;5055284;28;20037;-76
2022/08/21 10:36:08;;;;;;;4.70;2.00;;;;;;;-145.81;100.00;62408.38;5055376;28;20040;-77
2022/08/21 10:38:55;;;;;;;7.32;2.42;;;;;;;-145.81;100.00;62408.38;5046941;28;20508;-76
2022/08/21 10:41:49;;;;;;;6.55;2.50;;;;;;;-145.81;100.00;62408.38;5066756;28;20049;-76
2022/08/21 10:44:33;;;;;;;4.32;1.92;;;;;;;-145.81;100.00;62408.38;5058282;28;20037;-76
2022/08/21 10:47:31;;;;;;;8.80;2.30;;;;;;;-145.81;100.00;62408.38;5057187;28;20397;-76
2022/08/21 10:50:08;;;;;;;4.03;2.17;;;;;;;-145.81;100.00;62408.38;4997562;28;20099;-75
2022/08/21 10:52:44;;;;;;;6.40;2.08;;;;;;;-145.81;100.00;62408.38;5006493;28;20034;-76
2022/08/21 10:55:19;;;;;;;5.72;1.70;;;;;;;-145.81;100.00;62408.38;5006362;28;20562;-75
2022/08/21 10:57:54;;;;;;;5.05;1.73;;;;;;;-145.81;100.00;62408.38;5006086;28;20503;-75
2022/08/21 11:00:23;;;;;;;5.88;1.58;;;;;;;-145.81;100.00;62408.38;4989664;28;20050;-76
2022/08/21 11:03:07;;;;;;;7.18;1.95;;;;;;;-145.81;100.00;62408.38;5006241;28;20022;-75
2022/08/21 11:05:50;;;;;;;6.30;2.15;;;;;;;-145.81;100.00;62408.38;4998476;28;20033;-75
2022/08/21 11:08:26;;;;;;;6.00;2.63;;;;;;;-145.81;100.00;62408.38;5006201;28;20044;-75
2022/08/21 11:11:08;;;;;;;7.53;2.92;;;;;;;-145.81;100.00;62408.38;5005682;28;20034;-76
2022/08/21 11:13:45;;;;;;;7.43;2.70;;;;;;;-145.81;100.00;62408.38;5006136;28;20158;-76
2022/08/21 11:16:23;;;;;;;6.13;2.13;;;;;;;-145.81;100.00;62408.38;5005742;28;20116;-76
2022/08/21 11:18:58;;;;;;;4.65;1.83;;;;;;;-145.81;100.00;62408.38;4979183;28;20423;-75
2022/08/21 11:21:29;;;;;;;6.68;2.20;;;;;;;-145.81;100.00;62408.38;4997655;28;20116;-76
2022/08/21 11:24:03;;;;;;;6.47;1.90;;;;;;;-145.81;100.00;62408.38;5006253;28;20517;-75
2022/08/21 11:26:43;;;;;;;8.23;2.20;;;;;;;-145.81;100.00;62408.38;5022659;28;20059;-75
2022/08/21 11:29:17;;;;;;;8.05;2.58;;;;;;;-145.81;100.00;62408.38;5066556;28;20048;-75
2022/08/21 11:32:14;;;;;;;6.00;2.15;;;;;;;-145.81;100.00;62408.38;5071092;28;20032;-74